createdAt,value
2022-11-21T00:01:38.537Z,2.07
2022-11-21T00:04:07.850Z,2.90
2022-11-21T00:06:36.560Z,4.20
2022-11-21T00:09:05.204Z,3.13
2022-11-21T00:11:34.000Z,4.77
2022-11-21T00:14:02.164Z,3.47
2022-11-21T00:16:30.769Z,4.50
2022-11-21T00:19:00.761Z,3.13
2022-11-21T00:21:29.079Z,2.87
2022-11-21T00:23:57.219Z,4.73
2022-11-21T00:26:26.537Z,5.00
2022-11-21T00:28:54.709Z,5.90
2022-11-21T00:31:25.187Z,4.07
2022-11-21T00:33:53.551Z,4.37
2022-11-21T00:36:23.652Z,6.93
2022-11-21T00:38:52.194Z,3.70
2022-11-21T00:41:20.343Z,5.93
2022-11-21T00:43:48.544Z,3.97
2022-11-21T00:46:17.185Z,3.57
2022-11-21T00:48:45.347Z,5.27
2022-11-21T00:51:13.587Z,4.73
2022-11-21T00:53:43.603Z,5.37
2022-11-21T00:56:12.181Z,4.17
2022-11-21T00:58:40.355Z,3.10
2022-11-21T01:01:13.176Z,2.37
2022-11-21T01:03:42.486Z,4.53
2022-11-21T01:06:14.109Z,0.87
2022-11-21T01:08:45.784Z,3.67
2022-11-21T01:11:17.767Z,3.80
2022-11-21T01:13:47.834Z,1.10
2022-11-21T01:16:19.377Z,2.20
2022-11-21T01:18:49.025Z,1.63
2022-11-21T01:21:21.081Z,1.77
2022-11-21T01:23:51.589Z,1.83
2022-11-21T01:26:23.431Z,1.57
2022-11-21T01:28:52.298Z,1.60
2022-11-21T01:31:24.232Z,2.60
2022-11-21T01:33:53.441Z,0.60
2022-11-21T01:36:25.824Z,1.10
2022-11-21T01:38:59.217Z,1.97
2022-11-21T01:41:31.412Z,3.10
2022-11-21T01:43:59.976Z,1.23
2022-11-21T01:46:28.598Z,0.27
2022-11-21T01:49:04.251Z,0.87
2022-11-21T01:51:37.456Z,0.53
2022-11-21T01:54:14.863Z,0.90
2022-11-21T01:56:48.401Z,0.80
2022-11-21T01:59:27.709Z,0.70
2022-11-21T02:01:59.331Z,0.67
2022-11-21T02:04:33.077Z,0.40
2022-11-21T02:07:07.363Z,0.30
2022-11-21T02:09:42.081Z,0.97
2022-11-21T02:12:17.937Z,2.43
2022-11-21T02:14:46.573Z,0.80
2022-11-21T02:17:14.724Z,1.00
2022-11-21T02:19:55.295Z,1.20
2022-11-21T02:22:52.404Z,1.10
2022-11-21T02:25:25.329Z,1.57
2022-11-21T02:28:00.615Z,1.40
2022-11-21T02:30:32.662Z,0.70
2022-11-21T02:33:01.848Z,0.40
2022-11-21T02:35:30.271Z,1.30
2022-11-21T02:38:03.555Z,0.50
2022-11-21T02:40:38.936Z,1.33
2022-11-21T02:43:17.700Z,1.13
2022-11-21T02:45:47.914Z,0.43
2022-11-21T02:48:16.785Z,0.80
2022-11-21T02:50:49.049Z,0.57
2022-11-21T02:53:20.191Z,0.33
2022-11-21T02:55:50.490Z,0.83
2022-11-21T02:58:19.637Z,0.50
2022-11-21T03:00:48.639Z,0.23
2022-11-21T03:03:16.871Z,0.60
2022-11-21T03:05:45.658Z,0.87
2022-11-21T03:08:13.839Z,1.23
2022-11-21T03:10:42.504Z,0.53
2022-11-21T03:13:12.051Z,0.50
2022-11-21T03:15:40.731Z,0.97
2022-11-21T03:18:08.968Z,2.37
2022-11-21T03:20:37.671Z,2.23
2022-11-21T03:23:05.955Z,0.40
2022-11-21T03:25:34.192Z,1.17
2022-11-21T03:28:03.274Z,1.97
2022-11-21T03:30:33.247Z,0.83
2022-11-21T03:33:01.838Z,1.23
2022-11-21T03:35:29.981Z,0.83
2022-11-21T03:37:58.915Z,1.17
2022-11-21T03:40:27.431Z,1.23
2022-11-21T03:42:55.621Z,1.70
2022-11-21T03:45:24.787Z,2.37
2022-11-21T03:47:54.913Z,0.73
2022-11-21T03:50:23.743Z,1.50
2022-11-21T03:52:52.335Z,2.10
2022-11-21T03:55:20.747Z,3.10
2022-11-21T03:57:49.308Z,0.73
2022-11-21T04:00:19.174Z,2.10
2022-11-21T04:02:47.372Z,2.33
2022-11-21T04:05:17.937Z,1.40
2022-11-21T04:07:47.468Z,2.07
2022-11-21T04:10:16.520Z,1.77
2022-11-21T04:12:45.222Z,4.77
2022-11-21T04:15:14.089Z,2.03
2022-11-21T04:17:42.802Z,2.43
2022-11-21T04:20:13.251Z,3.70
2022-11-21T04:22:43.740Z,2.87
2022-11-21T04:25:13.755Z,2.30
2022-11-21T04:27:42.060Z,4.00
2022-11-21T04:30:12.626Z,2.57
2022-11-21T04:32:41.283Z,3.23
2022-11-21T04:35:10.538Z,1.90
2022-11-21T04:37:42.457Z,2.50
2022-11-21T04:40:13.639Z,2.60
2022-11-21T04:42:44.230Z,7.27
2022-11-21T04:45:14.113Z,1.40
2022-11-21T04:47:47.001Z,4.10
2022-11-21T04:50:17.222Z,4.40
2022-11-21T04:52:51.605Z,3.47
2022-11-21T04:55:20.739Z,2.20
2022-11-21T04:57:49.693Z,3.27
2022-11-21T05:00:24.029Z,2.20
2022-11-21T05:02:53.313Z,3.17
2022-11-21T05:05:21.738Z,4.07
2022-11-21T05:07:51.436Z,2.83
2022-11-21T05:10:20.309Z,1.00
2022-11-21T05:13:06.208Z,3.10
2022-11-21T05:15:35.593Z,1.93
2022-11-21T05:18:03.808Z,1.17
2022-11-21T05:20:36.698Z,6.00
2022-11-21T05:23:06.634Z,2.43
2022-11-21T05:25:34.834Z,0.80
2022-11-21T05:28:03.090Z,4.20
2022-11-21T05:30:31.480Z,4.03
2022-11-21T05:33:00.142Z,5.73
2022-11-21T05:35:28.493Z,5.10
2022-11-21T05:37:58.432Z,4.40
2022-11-21T05:40:28.062Z,6.23
2022-11-21T05:43:13.869Z,2.83
2022-11-21T05:45:42.120Z,3.80
2022-11-21T05:48:10.609Z,5.20
2022-11-21T05:50:38.906Z,4.83
2022-11-21T05:53:07.899Z,5.87
2022-11-21T05:55:37.906Z,4.93
2022-11-21T05:58:06.572Z,4.17
2022-11-21T06:00:34.777Z,4.13
2022-11-21T06:03:20.537Z,4.57
2022-11-21T06:05:49.672Z,5.23
2022-11-21T06:08:18.112Z,3.93
2022-11-21T06:10:48.743Z,3.93
2022-11-21T06:13:25.873Z,6.27
2022-11-21T06:15:59.688Z,8.20
2022-11-21T06:18:29.122Z,4.27
2022-11-21T06:21:03.231Z,5.57
2022-11-21T06:23:31.499Z,5.60
2022-11-21T06:26:03.486Z,6.97
2022-11-21T06:28:35.100Z,5.43
2022-11-21T06:31:07.219Z,10.57
2022-11-21T06:33:37.590Z,7.80
2022-11-21T06:36:09.207Z,6.80
2022-11-21T06:38:38.189Z,6.70
2022-11-21T06:41:12.661Z,4.83
2022-11-21T06:43:42.590Z,6.83
2022-11-21T06:46:11.923Z,3.80
2022-11-21T06:48:41.329Z,4.17
2022-11-21T06:51:18.053Z,7.80
2022-11-21T06:53:48.296Z,3.30
2022-11-21T06:56:18.702Z,5.23
2022-11-21T06:58:46.959Z,4.97
2022-11-21T07:01:15.537Z,6.07
2022-11-21T07:03:44.154Z,4.43
2022-11-21T07:06:13.444Z,9.27
2022-11-21T07:08:41.840Z,5.77
2022-11-21T07:11:30.069Z,4.83
2022-11-21T07:13:59.084Z,4.93
2022-11-21T07:16:30.773Z,3.50
2022-11-21T07:19:00.318Z,6.27
2022-11-21T07:21:28.936Z,3.60
2022-11-21T07:23:57.880Z,2.23
2022-11-21T07:26:26.018Z,5.00
2022-11-21T07:28:55.436Z,5.77
2022-11-21T07:31:25.422Z,7.50
2022-11-21T07:33:54.163Z,5.77
2022-11-21T07:36:22.325Z,2.73
2022-11-21T07:38:51.429Z,5.90
2022-11-21T07:41:20.785Z,7.43
2022-11-21T07:43:49.400Z,4.50
2022-11-21T07:46:18.006Z,6.67
2022-11-21T07:48:47.616Z,5.27
2022-11-21T07:51:15.887Z,5.30
2022-11-21T07:53:46.628Z,5.83
2022-11-21T07:56:15.271Z,7.10
2022-11-21T07:58:43.454Z,4.03
2022-11-21T08:01:12.353Z,5.43
2022-11-21T08:03:40.508Z,3.57
2022-11-21T08:06:13.671Z,3.57
2022-11-21T08:08:41.913Z,4.07
2022-11-21T08:11:10.641Z,4.90
2022-11-21T08:13:39.275Z,6.30
2022-11-21T08:16:08.055Z,3.27
2022-11-21T08:18:36.770Z,4.80
2022-11-21T08:21:07.187Z,4.17
2022-11-21T08:23:37.479Z,3.23
2022-11-21T08:26:05.689Z,8.83
2022-11-21T08:28:34.789Z,3.37
2022-11-21T08:31:05.718Z,3.93
2022-11-21T08:33:34.912Z,7.20
2022-11-21T08:36:06.301Z,5.93
2022-11-21T08:38:36.526Z,5.30
2022-11-21T08:41:22.587Z,5.93
2022-11-21T08:43:51.046Z,11.40
2022-11-21T08:46:19.234Z,6.17
2022-11-21T08:48:47.440Z,4.53
2022-11-21T08:51:15.854Z,8.57
2022-11-21T08:53:45.448Z,4.33
2022-11-21T08:56:14.235Z,3.43
2022-11-21T08:58:42.576Z,3.17
2022-11-21T09:01:11.071Z,3.67
2022-11-21T09:03:49.958Z,3.27
2022-11-21T09:06:18.145Z,4.10
2022-11-21T09:08:47.862Z,4.77
2022-11-21T09:11:16.146Z,5.87
2022-11-21T09:13:44.522Z,6.03
2022-11-21T09:16:30.717Z,6.30
2022-11-21T09:18:59.378Z,5.10
2022-11-21T09:21:27.983Z,2.70
2022-11-21T09:23:57.513Z,11.47
2022-11-21T09:26:27.328Z,6.27
2022-11-21T09:28:57.306Z,7.37
2022-11-21T09:31:25.571Z,4.53
2022-11-21T09:33:55.205Z,5.77
2022-11-21T09:36:23.861Z,6.63
2022-11-21T09:38:54.444Z,4.33
2022-11-21T09:41:49.943Z,4.13
2022-11-21T09:44:40.160Z,5.57
2022-11-21T09:47:23.033Z,8.03
2022-11-21T09:49:59.718Z,3.63
2022-11-21T09:52:42.155Z,3.43
2022-11-21T09:55:25.795Z,5.93
2022-11-21T09:57:57.448Z,4.20
2022-11-21T10:00:27.771Z,4.43
2022-11-21T10:02:57.021Z,7.40
2022-11-21T10:05:40.247Z,7.70
2022-11-21T10:08:21.584Z,7.00
2022-11-21T10:10:56.983Z,6.97
2022-11-21T10:13:47.952Z,8.87
2022-11-21T10:16:29.435Z,5.20
2022-11-21T10:19:41.756Z,5.60
2022-11-21T10:22:29.265Z,4.70
2022-11-21T10:25:04.830Z,8.70
2022-11-21T10:27:42.833Z,3.50
2022-11-21T10:30:19.949Z,4.33
2022-11-21T10:32:53.665Z,9.93
2022-11-21T10:35:26.514Z,7.87
2022-11-21T10:37:59.024Z,3.23
2022-11-21T10:40:39.428Z,5.20
2022-11-21T10:43:37.638Z,4.63
2022-11-21T10:46:07.248Z,8.87
2022-11-21T10:48:35.776Z,13.43
2022-11-21T10:51:30.041Z,6.30
2022-11-21T10:54:25.683Z,5.27
2022-11-21T10:56:57.983Z,4.07
2022-11-21T10:59:31.109Z,6.73
2022-11-21T11:02:04.260Z,3.30
2022-11-21T11:04:45.791Z,7.90
2022-11-21T11:07:26.011Z,5.70
2022-11-21T11:10:16.008Z,12.40
2022-11-21T11:13:05.262Z,4.10
2022-11-21T11:15:59.931Z,4.93
2022-11-21T11:18:30.315Z,17.00
2022-11-21T11:21:19.200Z,4.57
2022-11-21T11:23:49.505Z,3.03
2022-11-21T11:29:17.994Z,5.10
2022-11-21T11:31:55.597Z,4.53
2022-11-21T11:34:28.464Z,4.90
2022-11-21T11:37:12.345Z,3.93
2022-11-21T11:39:51.939Z,4.03
2022-11-21T11:43:13.168Z,3.90
2022-11-21T11:46:47.132Z,3.83
2022-11-21T11:49:30.484Z,3.80
2022-11-21T11:52:06.560Z,7.17
2022-11-21T11:54:51.524Z,4.10
2022-11-21T11:57:20.875Z,4.03
2022-11-21T12:00:05.791Z,2.30
2022-11-21T12:02:53.335Z,3.30
2022-11-21T12:05:29.036Z,5.70
2022-11-21T12:11:37.131Z,4.50
2022-11-21T12:14:34.879Z,3.37
2022-11-21T12:17:09.014Z,4.80
2022-11-21T12:19:39.279Z,3.50
2022-11-21T12:22:13.012Z,4.23
2022-11-21T12:24:43.135Z,4.23
2022-11-21T12:27:28.322Z,4.43
2022-11-21T12:30:35.200Z,4.87
2022-11-21T12:33:12.511Z,6.60
2022-11-21T12:36:21.897Z,13.60
2022-11-21T12:39:24.283Z,6.17
2022-11-21T12:42:24.564Z,5.47
2022-11-21T12:45:22.130Z,5.90
2022-11-21T12:48:31.100Z,17.10
2022-11-21T12:52:03.453Z,6.73
2022-11-21T12:55:25.178Z,4.30
2022-11-21T12:58:11.493Z,6.93
2022-11-21T13:00:59.177Z,6.57
2022-11-21T13:03:51.817Z,5.37
2022-11-21T13:06:26.913Z,8.97
2022-11-21T13:09:01.917Z,5.23
2022-11-21T13:12:01.392Z,3.13
2022-11-21T13:14:45.681Z,3.27
2022-11-21T13:17:41.492Z,5.53
2022-11-21T13:20:25.037Z,5.27
2022-11-21T13:22:56.614Z,8.80
2022-11-21T13:25:48.102Z,5.57
2022-11-21T13:28:38.137Z,6.37
2022-11-21T13:31:31.493Z,10.23
2022-11-21T13:34:00.995Z,4.53
2022-11-21T13:36:43.634Z,8.77
2022-11-21T13:39:36.521Z,6.63
2022-11-21T13:42:31.040Z,5.10
2022-11-21T13:45:33.910Z,3.17
2022-11-21T13:48:31.946Z,5.87
2022-11-21T13:51:42.634Z,7.13
2022-11-21T13:54:58.655Z,4.73
2022-11-21T13:57:53.302Z,6.07
2022-11-21T14:01:14.876Z,4.10
2022-11-21T14:04:21.479Z,7.30
2022-11-21T14:06:49.951Z,5.43
2022-11-21T14:09:28.060Z,5.93
2022-11-21T14:12:03.736Z,4.67
2022-11-21T14:14:39.605Z,4.70
2022-11-21T14:17:39.711Z,5.97
2022-11-21T14:20:20.093Z,8.07
2022-11-21T14:22:57.996Z,5.53
2022-11-21T14:25:37.264Z,4.53
2022-11-21T14:28:11.459Z,4.60
2022-11-21T14:30:42.889Z,4.03
2022-11-21T14:33:32.241Z,5.57
2022-11-21T14:36:05.443Z,5.43
2022-11-21T14:38:42.362Z,3.53
2022-11-21T14:41:34.335Z,4.93
2022-11-21T14:44:18.608Z,3.57
2022-11-21T14:46:48.271Z,4.20
2022-11-21T14:49:36.029Z,4.33
2022-11-21T14:52:18.627Z,4.17
2022-11-21T14:55:29.073Z,4.53
2022-11-21T14:57:44.537Z,5.63
2022-11-21T15:03:21.820Z,8.10
2022-11-21T15:06:06.428Z,5.40
2022-11-21T15:11:39.084Z,7.87
2022-11-21T15:14:20.342Z,6.73
2022-11-21T15:16:52.875Z,11.73
2022-11-21T15:19:24.953Z,8.33
2022-11-21T15:21:59.197Z,6.97
2022-11-21T15:24:39.344Z,4.70
2022-11-21T15:27:33.673Z,4.90
2022-11-21T15:30:07.203Z,3.43
2022-11-21T15:33:03.494Z,8.90
2022-11-21T15:35:47.666Z,9.10
2022-11-21T15:38:32.367Z,4.63
2022-11-21T15:41:04.659Z,4.20
2022-11-21T15:43:42.504Z,7.63
2022-11-21T15:46:18.337Z,4.23
2022-11-21T15:48:48.795Z,3.60
2022-11-21T15:51:31.850Z,3.13
2022-11-21T15:54:13.262Z,4.23
2022-11-21T15:56:41.827Z,4.77
2022-11-21T15:59:10.554Z,2.87
2022-11-21T16:01:39.010Z,5.93
2022-11-21T16:04:12.814Z,5.10
2022-11-21T16:06:41.073Z,7.10
2022-11-21T16:09:11.129Z,6.93
2022-11-21T16:11:40.550Z,7.20
2022-11-21T16:14:09.883Z,7.93
2022-11-21T16:16:45.288Z,6.17
2022-11-21T16:19:14.475Z,5.77
2022-11-21T16:21:44.370Z,6.47
2022-11-21T16:24:14.241Z,4.80
2022-11-21T16:26:42.423Z,7.43
2022-11-21T16:29:12.336Z,5.43
2022-11-21T16:31:40.821Z,5.33
2022-11-21T16:34:09.138Z,6.13
2022-11-21T16:36:38.572Z,8.23
2022-11-21T16:39:11.118Z,6.00
2022-11-21T16:41:44.340Z,6.70
2022-11-21T16:44:16.187Z,4.53
2022-11-21T16:46:49.386Z,5.13
2022-11-21T16:49:17.577Z,6.60
2022-11-21T16:51:46.295Z,6.20
2022-11-21T16:54:14.471Z,6.07
2022-11-21T16:56:44.359Z,6.77
2022-11-21T16:59:13.587Z,7.00
2022-11-21T17:01:41.912Z,3.40
2022-11-21T17:04:15.612Z,4.87
2022-11-21T17:06:49.141Z,6.93
2022-11-21T17:09:18.061Z,11.33
2022-11-21T17:11:48.049Z,7.77
2022-11-21T17:14:16.285Z,8.20
2022-11-21T17:16:45.820Z,5.90
2022-11-21T17:19:16.241Z,6.73
2022-11-21T17:21:47.155Z,6.27
2022-11-21T17:24:15.874Z,6.07
2022-11-21T17:26:44.565Z,5.73
2022-11-21T17:29:14.561Z,8.50
2022-11-21T17:31:42.869Z,6.90
2022-11-21T17:34:11.608Z,8.43
2022-11-21T17:36:40.436Z,9.13
2022-11-21T17:39:09.636Z,6.30
2022-11-21T17:41:39.531Z,7.93
2022-11-21T17:44:08.559Z,3.40
2022-11-21T17:46:38.126Z,3.67
2022-11-21T17:49:07.799Z,4.93
2022-11-21T17:51:38.179Z,4.60
2022-11-21T17:54:09.007Z,4.60
2022-11-21T17:56:45.857Z,4.23
2022-11-21T17:59:15.830Z,7.07
2022-11-21T18:01:46.330Z,4.30
2022-11-21T18:04:17.761Z,4.10
2022-11-21T18:06:47.130Z,5.43
2022-11-21T18:09:34.833Z,3.77
2022-11-21T18:12:03.348Z,4.63
2022-11-21T18:14:31.763Z,12.50
2022-11-21T18:17:01.465Z,12.43
2022-11-21T18:19:30.258Z,6.20
2022-11-21T18:21:58.588Z,5.33
2022-11-21T18:24:28.573Z,5.00
2022-11-21T18:27:00.619Z,7.00
2022-11-21T18:29:36.192Z,6.60
2022-11-21T18:32:07.432Z,6.87
2022-11-21T18:34:37.311Z,6.77
2022-11-21T18:37:06.686Z,4.40
2022-11-21T18:39:35.231Z,12.23
2022-11-21T18:42:03.677Z,10.00
2022-11-21T18:44:32.464Z,4.03
2022-11-21T18:47:00.752Z,5.70
2022-11-21T18:49:30.893Z,3.87
2022-11-21T18:51:59.657Z,4.80
2022-11-21T18:54:30.468Z,3.50
2022-11-21T18:56:58.638Z,8.53
2022-11-21T18:59:27.690Z,8.60
2022-11-21T19:01:56.127Z,10.83
2022-11-21T19:04:25.641Z,9.87
2022-11-21T19:06:55.690Z,14.87
2022-11-21T19:09:29.425Z,28.97
2022-11-21T19:12:00.833Z,23.17
2022-11-21T19:14:29.628Z,18.13
2022-11-21T19:16:58.116Z,11.87
2022-11-21T19:19:36.208Z,17.60
2022-11-21T19:22:06.328Z,7.70
2022-11-21T19:24:34.723Z,4.47
2022-11-21T19:27:04.050Z,3.70
2022-11-21T19:29:33.620Z,5.93
2022-11-21T19:32:01.880Z,14.57
2022-11-21T19:34:30.151Z,9.60
2022-11-21T19:36:58.561Z,10.20
2022-11-21T19:39:28.541Z,38.60
2022-11-21T19:41:57.151Z,41.27
2022-11-21T19:44:25.632Z,22.70
2022-11-21T19:46:54.136Z,13.10
2022-11-21T19:49:22.305Z,9.17
2022-11-21T19:51:51.608Z,10.57
2022-11-21T19:54:20.840Z,11.13
2022-11-21T19:56:50.608Z,8.83
2022-11-21T19:59:18.826Z,6.77
2022-11-21T20:01:52.369Z,8.87
2022-11-21T20:04:21.392Z,5.50
2022-11-21T20:06:49.857Z,6.67
2022-11-21T20:09:20.808Z,7.60
2022-11-21T20:11:53.721Z,8.37
2022-11-21T20:14:23.038Z,6.30
2022-11-21T20:16:54.217Z,7.50
2022-11-21T20:19:27.103Z,24.97
2022-11-21T20:21:56.157Z,15.20
2022-11-21T20:24:24.358Z,13.10
2022-11-21T20:26:54.865Z,9.30
2022-11-21T20:29:23.313Z,11.83
2022-11-21T20:31:51.700Z,11.47
2022-11-21T20:34:20.464Z,27.20
2022-11-21T20:36:48.664Z,26.60
2022-11-21T20:39:18.934Z,19.37
2022-11-21T20:41:48.523Z,15.80
2022-11-21T20:47:10.519Z,11.70
2022-11-21T20:49:39.126Z,16.30
2022-11-21T20:54:56.321Z,28.63
2022-11-21T20:57:27.532Z,18.60
2022-11-21T20:59:57.180Z,11.07
2022-11-21T21:02:26.867Z,7.80
2022-11-21T21:04:55.497Z,7.03
2022-11-21T21:07:23.815Z,6.20
2022-11-21T21:09:53.758Z,6.67
2022-11-21T21:12:21.987Z,6.07
2022-11-21T21:14:50.288Z,5.47
2022-11-21T21:17:22.198Z,3.70
2022-11-21T21:19:50.661Z,4.40
2022-11-21T21:22:19.084Z,5.03
2022-11-21T21:24:47.295Z,4.10
2022-11-21T21:27:16.252Z,2.20
2022-11-21T21:29:44.420Z,3.50
2022-11-21T21:32:13.092Z,1.53
2022-11-21T21:34:42.621Z,2.43
2022-11-21T21:37:10.825Z,2.30
2022-11-21T21:39:39.085Z,2.47
2022-11-21T21:42:07.520Z,1.47
2022-11-21T21:44:36.346Z,3.23
2022-11-21T21:47:04.959Z,3.47
2022-11-21T21:49:33.385Z,2.50
2022-11-21T21:52:03.136Z,3.87
2022-11-21T21:54:32.527Z,3.50
2022-11-21T21:57:01.558Z,1.60
2022-11-21T21:59:29.820Z,2.17
2022-11-21T22:01:58.371Z,2.10
2022-11-21T22:04:26.656Z,1.20
2022-11-21T22:06:55.317Z,3.03
2022-11-21T22:09:25.002Z,2.43
2022-11-21T22:11:54.135Z,2.80
2022-11-21T22:14:22.365Z,2.10
2022-11-21T22:16:52.183Z,2.10
2022-11-21T22:19:21.743Z,2.00
2022-11-21T22:24:40.717Z,1.50
2022-11-21T22:27:09.155Z,2.50
2022-11-21T22:29:37.313Z,3.13
2022-11-21T22:32:07.464Z,3.17
2022-11-21T22:34:35.745Z,2.37
2022-11-21T22:37:05.240Z,2.07
2022-11-21T22:39:34.045Z,2.53
2022-11-21T22:42:04.279Z,2.90
2022-11-21T22:44:32.769Z,1.97
2022-11-21T22:47:01.770Z,2.37
2022-11-21T22:49:30.739Z,1.30
2022-11-21T22:51:58.951Z,1.27
2022-11-21T22:54:27.646Z,3.37
2022-11-21T22:56:55.965Z,1.73
2022-11-21T22:59:25.790Z,3.40
2022-11-21T23:01:54.184Z,4.03
2022-11-21T23:04:22.948Z,3.03
2022-11-21T23:06:51.663Z,2.43
2022-11-21T23:09:20.157Z,3.83
2022-11-21T23:11:49.108Z,1.90
2022-11-21T23:14:18.413Z,1.90
2022-11-21T23:16:48.071Z,1.40
2022-11-21T23:19:16.773Z,1.70
2022-11-21T23:21:46.087Z,1.13
2022-11-21T23:24:14.428Z,2.77
2022-11-21T23:26:42.606Z,1.20
2022-11-21T23:29:12.192Z,1.00
2022-11-21T23:31:40.674Z,1.43
2022-11-21T23:37:01.086Z,2.83
2022-11-21T23:39:30.268Z,1.17
2022-11-21T23:41:59.348Z,0.83
2022-11-21T23:44:27.702Z,1.60
2022-11-21T23:46:56.287Z,2.73
2022-11-21T23:49:26.406Z,5.03
2022-11-21T23:51:55.446Z,2.57
2022-11-21T23:54:24.127Z,1.93
2022-11-21T23:56:52.854Z,3.30
2022-11-21T23:59:21.080Z,3.00
